createdAt,value
2018-04-30T00:01:29.532Z,71.72
2018-04-30T00:03:56.529Z,71.81
2018-04-30T00:06:22.858Z,71.30
2018-04-30T00:08:49.941Z,71.24
2018-04-30T00:11:16.213Z,72.10
2018-04-30T00:13:42.473Z,72.07
2018-04-30T00:16:08.772Z,72.80
2018-04-30T00:18:35.065Z,72.56
2018-04-30T00:21:01.367Z,72.50
2018-04-30T00:23:28.365Z,73.12
2018-04-30T00:25:55.391Z,73.19
2018-04-30T00:28:22.469Z,73.17
2018-04-30T00:30:48.806Z,73.22
2018-04-30T00:33:15.968Z,73.16
2018-04-30T00:35:42.310Z,73.16
2018-04-30T00:38:09.439Z,73.49
2018-04-30T00:40:35.795Z,73.51
2018-04-30T00:43:02.111Z,73.45
2018-04-30T00:45:28.427Z,73.71
2018-04-30T00:47:55.501Z,74.00
2018-04-30T00:50:21.747Z,73.84
2018-04-30T00:52:48.040Z,73.75
2018-04-30T00:55:14.314Z,73.54
2018-04-30T00:57:40.900Z,73.41
2018-04-30T01:00:07.129Z,73.11
2018-04-30T01:02:33.366Z,73.38
2018-04-30T01:04:59.615Z,73.22
2018-04-30T01:07:25.912Z,73.28
2018-04-30T01:09:52.194Z,73.30
2018-04-30T01:12:19.394Z,73.56
2018-04-30T01:14:46.443Z,73.29
2018-04-30T01:17:12.705Z,72.93
2018-04-30T01:19:38.963Z,72.33
2018-04-30T01:22:05.257Z,72.70
2018-04-30T01:24:31.507Z,72.97
2018-04-30T01:26:57.784Z,73.37
2018-04-30T01:29:24.840Z,72.92
2018-04-30T01:31:51.458Z,73.19
2018-04-30T01:34:17.705Z,73.23
2018-04-30T01:36:44.717Z,72.74
2018-04-30T01:39:10.975Z,71.94
2018-04-30T01:41:38.028Z,71.56
2018-04-30T01:44:05.059Z,69.84
2018-04-30T01:46:31.304Z,68.16
2018-04-30T01:48:58.328Z,68.08
2018-04-30T01:51:24.576Z,68.62
2018-04-30T01:53:51.629Z,68.45
2018-04-30T01:56:18.676Z,67.43
2018-04-30T01:58:45.669Z,66.18
2018-04-30T02:01:11.954Z,65.74
2018-04-30T02:03:38.997Z,64.59
2018-04-30T02:06:06.009Z,64.63
2018-04-30T02:08:32.295Z,64.12
2018-04-30T02:10:58.602Z,64.03
2018-04-30T02:13:25.652Z,64.07
2018-04-30T02:15:52.662Z,63.70
2018-04-30T02:18:18.925Z,63.44
2018-04-30T02:20:45.950Z,63.25
2018-04-30T02:23:12.276Z,63.49
2018-04-30T02:25:38.534Z,62.95
2018-04-30T02:28:05.617Z,62.93
2018-04-30T02:30:31.937Z,62.50
2018-04-30T02:32:58.255Z,62.58
2018-04-30T02:35:25.297Z,62.46
2018-04-30T02:37:52.366Z,62.58
2018-04-30T02:40:18.697Z,62.33
2018-04-30T02:42:45.020Z,62.34
2018-04-30T02:45:12.009Z,62.20
2018-04-30T02:47:38.271Z,61.60
2018-04-30T02:50:04.607Z,61.64
2018-04-30T02:52:31.623Z,61.62
2018-04-30T02:54:58.802Z,61.48
2018-04-30T02:57:25.102Z,61.16
2018-04-30T02:59:51.389Z,61.44
2018-04-30T03:02:17.673Z,61.30
2018-04-30T03:04:43.977Z,61.35
2018-04-30T03:07:10.251Z,61.64
2018-04-30T03:09:36.600Z,61.43
2018-04-30T03:12:02.815Z,61.36
2018-04-30T03:14:29.113Z,61.37
2018-04-30T03:16:56.317Z,61.54
2018-04-30T03:19:22.623Z,61.59
2018-04-30T03:21:48.891Z,61.83
2018-04-30T03:24:15.204Z,61.85
2018-04-30T03:26:42.223Z,61.96
2018-04-30T03:29:08.511Z,62.07
2018-04-30T03:31:34.815Z,62.21
2018-04-30T03:34:01.152Z,62.29
2018-04-30T03:36:27.455Z,62.61
2018-04-30T03:38:53.747Z,63.05
2018-04-30T03:41:20.007Z,62.97
2018-04-30T03:43:46.324Z,63.22
2018-04-30T03:46:13.458Z,63.57
2018-04-30T03:48:39.758Z,63.46
2018-04-30T03:51:06.093Z,64.02
2018-04-30T03:53:32.381Z,64.03
2018-04-30T03:55:58.657Z,63.58
2018-04-30T03:58:24.947Z,63.72
2018-04-30T04:01:10.782Z,63.26
2018-04-30T04:03:55.734Z,63.32
2018-04-30T04:09:32.098Z,63.62
2018-04-30T04:11:59.131Z,63.19
2018-04-30T04:14:25.406Z,62.74
2018-04-30T04:16:51.938Z,62.45
2018-04-30T04:19:18.226Z,62.18
2018-04-30T04:21:44.570Z,61.89
2018-04-30T04:24:17.770Z,62.10
2018-04-30T04:26:44.759Z,62.17
2018-04-30T04:29:11.031Z,61.82
2018-04-30T04:31:37.311Z,61.27
2018-04-30T04:34:03.616Z,60.85
2018-04-30T04:36:30.612Z,60.91
2018-04-30T04:38:56.880Z,60.54
2018-04-30T04:41:23.879Z,59.99
2018-04-30T04:43:50.170Z,59.58
2018-04-30T04:46:17.205Z,59.33
2018-04-30T04:48:44.207Z,59.38
2018-04-30T04:51:10.482Z,59.88
2018-04-30T04:53:37.484Z,60.41
2018-04-30T04:56:03.817Z,60.01
2018-04-30T04:58:30.053Z,59.32
2018-04-30T05:00:56.376Z,58.26
2018-04-30T05:03:22.673Z,57.65
2018-04-30T05:05:48.947Z,57.29
2018-04-30T05:08:15.207Z,56.97
2018-04-30T05:10:41.473Z,57.24
2018-04-30T05:13:07.722Z,57.06
2018-04-30T05:15:33.977Z,56.94
2018-04-30T05:18:00.248Z,56.96
2018-04-30T05:20:26.556Z,56.70
2018-04-30T05:22:53.588Z,56.52
2018-04-30T05:25:19.875Z,56.45
2018-04-30T05:27:46.172Z,56.23
2018-04-30T05:30:13.159Z,56.49
2018-04-30T05:32:39.410Z,55.98
2018-04-30T05:35:06.704Z,55.83
2018-04-30T05:37:33.733Z,55.24
2018-04-30T05:40:00.032Z,54.81
2018-04-30T05:42:26.303Z,53.81
2018-04-30T05:44:53.349Z,53.16
2018-04-30T05:47:20.345Z,51.68
2018-04-30T05:49:46.631Z,51.12
2018-04-30T05:52:13.660Z,50.34
2018-04-30T05:54:39.942Z,48.52
2018-04-30T05:57:06.216Z,48.22
2018-04-30T05:59:32.440Z,47.90
2018-04-30T06:01:58.729Z,47.82
2018-04-30T06:04:25.011Z,47.59
2018-04-30T06:06:52.075Z,47.30
2018-04-30T06:09:18.328Z,47.31
2018-04-30T06:11:44.662Z,47.54
2018-04-30T06:14:10.993Z,47.94
2018-04-30T06:16:37.246Z,47.90
2018-04-30T06:19:03.538Z,47.33
2018-04-30T06:21:30.577Z,47.18
2018-04-30T06:23:57.605Z,46.97
2018-04-30T06:26:23.871Z,46.83
2018-04-30T06:28:50.137Z,46.42
2018-04-30T06:31:16.394Z,46.57
2018-04-30T06:33:42.940Z,46.01
2018-04-30T06:36:09.246Z,45.07
2018-04-30T06:38:35.530Z,45.07
2018-04-30T06:41:02.302Z,44.59
2018-04-30T06:43:28.576Z,44.89
2018-04-30T06:45:55.649Z,44.52
2018-04-30T06:48:21.913Z,44.29
2018-04-30T06:50:48.209Z,44.14
2018-04-30T06:53:14.490Z,43.92
2018-04-30T06:55:40.790Z,44.38
2018-04-30T06:58:07.121Z,43.91
2018-04-30T07:00:33.418Z,43.08
2018-04-30T07:03:00.451Z,43.01
2018-04-30T07:05:26.747Z,43.19
2018-04-30T07:07:52.983Z,42.93
2018-04-30T07:10:19.290Z,42.94
2018-04-30T07:12:45.568Z,42.53
2018-04-30T07:15:11.853Z,42.11
2018-04-30T07:17:38.080Z,41.31
2018-04-30T07:20:04.430Z,41.30
2018-04-30T07:22:30.713Z,40.40
2018-04-30T07:24:57.723Z,39.58
2018-04-30T07:27:24.026Z,39.32
2018-04-30T07:29:50.330Z,39.37
2018-04-30T07:32:16.694Z,39.97
2018-04-30T07:34:42.991Z,38.94
2018-04-30T07:37:09.285Z,38.55
2018-04-30T07:39:35.584Z,39.12
2018-04-30T07:42:01.893Z,38.54
2018-04-30T07:44:28.174Z,33.79
2018-04-30T07:46:54.498Z,31.77
2018-04-30T07:49:20.790Z,30.94
2018-04-30T07:51:47.084Z,32.08
2018-04-30T07:54:14.111Z,32.07
2018-04-30T07:56:40.403Z,32.15
2018-04-30T07:59:06.697Z,32.64
2018-04-30T08:01:33.710Z,32.99
2018-04-30T08:03:59.996Z,32.91
2018-04-30T08:06:26.272Z,32.76
2018-04-30T08:08:52.590Z,32.91
2018-04-30T08:11:18.902Z,31.94
2018-04-30T08:13:45.205Z,32.62
2018-04-30T08:16:12.289Z,35.37
2018-04-30T08:18:38.583Z,35.16
2018-04-30T08:21:05.650Z,36.25
2018-04-30T08:23:31.914Z,36.05
2018-04-30T08:25:58.207Z,36.32
2018-04-30T08:28:24.499Z,37.43
2018-04-30T08:30:50.772Z,37.66
2018-04-30T08:33:17.071Z,38.34
2018-04-30T08:35:44.342Z,38.34
2018-04-30T08:38:10.765Z,39.83
2018-04-30T08:40:37.040Z,40.80
2018-04-30T08:43:03.345Z,40.79
2018-04-30T08:45:29.621Z,40.81
2018-04-30T08:47:55.901Z,40.75
2018-04-30T08:50:22.161Z,42.76
2018-04-30T08:52:48.471Z,42.10
2018-04-30T08:55:14.752Z,42.59
2018-04-30T08:57:41.062Z,42.28
2018-04-30T09:00:07.368Z,41.36
2018-04-30T09:02:33.682Z,40.26
2018-04-30T09:05:00.021Z,40.08
2018-04-30T09:07:26.339Z,40.27
2018-04-30T09:09:52.599Z,40.38
2018-04-30T09:12:18.899Z,39.45
2018-04-30T09:14:45.992Z,40.10
2018-04-30T09:17:12.355Z,40.18
2018-04-30T09:19:38.709Z,41.08
2018-04-30T09:22:05.122Z,40.62
2018-04-30T09:24:32.119Z,41.00
2018-04-30T09:26:58.443Z,41.04
2018-04-30T09:29:24.749Z,39.96
2018-04-30T09:31:51.785Z,39.21
2018-04-30T09:34:18.877Z,38.99
2018-04-30T09:36:46.136Z,39.08
2018-04-30T09:39:13.435Z,38.23
2018-04-30T09:41:39.768Z,38.13
2018-04-30T09:44:06.805Z,37.09
2018-04-30T09:46:33.074Z,37.37
2018-04-30T09:48:59.371Z,38.01
2018-04-30T09:51:25.652Z,37.18
2018-04-30T09:53:51.967Z,37.53
2018-04-30T09:56:18.311Z,37.70
2018-04-30T09:58:44.578Z,37.66
2018-04-30T10:01:10.918Z,38.20
2018-04-30T10:03:37.226Z,38.40
2018-04-30T10:06:03.542Z,36.51
2018-04-30T10:08:29.865Z,36.58
2018-04-30T10:10:56.169Z,37.44
2018-04-30T10:13:22.457Z,37.44
2018-04-30T10:15:49.464Z,36.84
2018-04-30T10:18:15.776Z,37.67
2018-04-30T10:20:42.854Z,37.37
2018-04-30T10:23:09.190Z,37.29
2018-04-30T10:25:35.544Z,36.65
2018-04-30T10:28:01.842Z,36.17
2018-04-30T10:30:28.165Z,35.52
2018-04-30T10:32:54.520Z,35.62
2018-04-30T10:35:20.842Z,34.71
2018-04-30T10:37:47.439Z,35.78
2018-04-30T10:40:13.780Z,34.40
2018-04-30T10:42:40.845Z,33.22
2018-04-30T10:45:07.156Z,33.07
2018-04-30T10:47:34.231Z,33.02
2018-04-30T10:50:00.552Z,31.54
2018-04-30T10:52:26.883Z,31.22
2018-04-30T10:54:53.230Z,29.84
2018-04-30T10:57:19.587Z,29.79
2018-04-30T10:59:46.038Z,29.61
2018-04-30T11:02:12.327Z,29.14
2018-04-30T11:04:38.627Z,28.39
2018-04-30T11:07:05.631Z,30.02
2018-04-30T11:09:32.052Z,28.71
2018-04-30T11:12:18.021Z,28.77
2018-04-30T11:14:44.361Z,29.27
2018-04-30T11:17:10.693Z,28.76
2018-04-30T11:19:37.099Z,28.24
2018-04-30T11:22:03.575Z,28.95
2018-04-30T11:24:30.114Z,28.56
2018-04-30T11:26:56.418Z,28.45
2018-04-30T11:29:29.597Z,27.75
2018-04-30T11:31:55.970Z,27.07
2018-04-30T11:34:22.302Z,26.77
2018-04-30T11:36:49.349Z,25.54
2018-04-30T11:39:15.710Z,24.72
2018-04-30T11:41:42.122Z,23.76
2018-04-30T11:44:08.504Z,22.95
2018-04-30T11:46:34.832Z,22.83
2018-04-30T11:49:01.212Z,21.74
2018-04-30T11:51:27.509Z,23.69
2018-04-30T11:53:54.035Z,22.44
2018-04-30T11:56:20.430Z,22.37
2018-04-30T11:58:46.926Z,23.84
2018-04-30T12:01:13.316Z,23.13
2018-04-30T12:03:39.851Z,22.78
2018-04-30T12:06:06.925Z,22.12
2018-04-30T12:08:33.317Z,23.06
2018-04-30T12:10:59.783Z,23.34
2018-04-30T12:13:26.155Z,25.07
2018-04-30T12:15:52.451Z,23.87
2018-04-30T12:18:18.803Z,23.07
2018-04-30T12:20:45.190Z,22.86
2018-04-30T12:23:12.264Z,21.23
2018-04-30T12:25:38.624Z,22.15
2018-04-30T12:28:05.040Z,21.72
2018-04-30T12:30:31.425Z,20.27
2018-04-30T12:32:57.828Z,19.78
2018-04-30T12:35:24.198Z,20.34
2018-04-30T12:37:51.297Z,20.94
2018-04-30T12:40:17.646Z,20.31
2018-04-30T12:42:43.971Z,19.63
2018-04-30T12:45:10.383Z,20.64
2018-04-30T12:47:36.731Z,21.05
2018-04-30T12:50:03.070Z,21.72
2018-04-30T12:52:29.364Z,21.67
2018-04-30T12:54:55.838Z,21.89
2018-04-30T12:57:22.193Z,20.56
2018-04-30T12:59:48.543Z,19.92
2018-04-30T13:02:15.775Z,20.00
2018-04-30T13:04:42.099Z,21.74
2018-04-30T13:07:08.428Z,22.71
2018-04-30T13:09:34.766Z,22.74
2018-04-30T13:12:01.109Z,23.10
2018-04-30T13:14:28.209Z,23.52
2018-04-30T13:16:54.597Z,23.08
2018-04-30T13:19:20.925Z,22.96
2018-04-30T13:21:47.337Z,23.30
2018-04-30T13:24:13.659Z,23.53
2018-04-30T13:26:39.948Z,23.40
2018-04-30T13:29:06.228Z,23.11
2018-04-30T13:31:32.516Z,22.35
2018-04-30T13:33:58.804Z,21.33
2018-04-30T13:36:26.216Z,18.94
2018-04-30T13:38:52.515Z,16.52
2018-04-30T13:41:19.532Z,18.84
2018-04-30T13:43:45.857Z,18.87
2018-04-30T13:46:12.195Z,16.32
2018-04-30T13:48:38.463Z,13.33
2018-04-30T13:51:04.808Z,13.15
2018-04-30T13:53:31.175Z,13.25
2018-04-30T13:55:57.445Z,11.78
2018-04-30T13:58:24.534Z,11.84
2018-04-30T14:00:50.822Z,12.17
2018-04-30T14:03:17.884Z,11.01
2018-04-30T14:05:44.291Z,9.80
2018-04-30T14:08:11.391Z,10.91
2018-04-30T14:10:37.717Z,11.33
2018-04-30T14:13:04.025Z,11.32
2018-04-30T14:15:30.343Z,10.26
2018-04-30T14:17:57.444Z,10.29
2018-04-30T14:20:31.670Z,11.55
2018-04-30T14:22:57.995Z,11.23
2018-04-30T14:25:24.355Z,11.32
2018-04-30T14:27:50.672Z,12.54
2018-04-30T14:30:17.018Z,10.67
2018-04-30T14:32:43.337Z,9.44
2018-04-30T14:35:09.627Z,9.60
2018-04-30T14:37:35.917Z,10.76
2018-04-30T14:40:02.276Z,8.88
2018-04-30T14:42:28.578Z,9.50
2018-04-30T14:44:54.904Z,8.20
2018-04-30T14:47:21.214Z,9.33
2018-04-30T14:49:47.488Z,8.12
2018-04-30T14:52:14.529Z,10.23
2018-04-30T14:54:41.625Z,11.16
2018-04-30T14:57:07.895Z,10.46
2018-04-30T14:59:34.184Z,10.16
2018-04-30T15:02:00.480Z,9.65
2018-04-30T15:04:26.841Z,9.64
2018-04-30T15:06:53.128Z,8.69
2018-04-30T15:09:20.151Z,8.22
2018-04-30T15:11:46.452Z,10.24
2018-04-30T15:16:45.803Z,11.08
2018-04-30T15:19:12.240Z,10.91
2018-04-30T15:21:38.573Z,11.18
2018-04-30T15:24:04.845Z,10.26
2018-04-30T15:26:31.123Z,10.33
2018-04-30T15:28:57.449Z,10.08
2018-04-30T15:31:23.762Z,8.54
2018-04-30T15:33:50.065Z,8.06
2018-04-30T15:36:17.087Z,9.62
2018-04-30T15:38:44.179Z,10.59
2018-04-30T15:41:10.587Z,11.87
2018-04-30T15:43:37.641Z,10.93
2018-04-30T15:46:03.933Z,12.32
2018-04-30T15:48:30.230Z,11.46
2018-04-30T15:50:56.574Z,11.92
2018-04-30T15:53:22.856Z,10.63
2018-04-30T15:55:49.970Z,10.72
2018-04-30T15:58:16.353Z,12.74
2018-04-30T16:00:42.789Z,11.59
2018-04-30T16:03:09.121Z,11.35
2018-04-30T16:05:35.436Z,11.32
2018-04-30T16:08:02.518Z,10.42
2018-04-30T16:10:28.794Z,10.12
2018-04-30T16:12:55.068Z,9.31
2018-04-30T16:15:21.357Z,9.72
2018-04-30T16:17:47.695Z,11.80
2018-04-30T16:20:14.849Z,12.76
2018-04-30T16:22:41.099Z,11.96
2018-04-30T16:25:07.436Z,9.96
2018-04-30T16:27:33.742Z,10.76
2018-04-30T16:30:00.808Z,11.19
2018-04-30T16:32:27.123Z,11.67
2018-04-30T16:34:54.202Z,11.14
2018-04-30T16:37:20.550Z,10.65
2018-04-30T16:39:46.877Z,10.66
2018-04-30T16:42:13.277Z,10.64
2018-04-30T16:44:39.654Z,12.17
2018-04-30T16:47:05.979Z,13.08
2018-04-30T16:49:32.319Z,12.31
2018-04-30T16:51:58.596Z,11.60
2018-04-30T16:54:25.662Z,11.89
2018-04-30T16:56:52.308Z,11.93
2018-04-30T16:59:18.776Z,11.58
2018-04-30T17:01:45.857Z,11.93
2018-04-30T17:04:12.947Z,12.87
2018-04-30T17:06:39.323Z,13.67
2018-04-30T17:09:06.623Z,13.32
2018-04-30T17:11:32.946Z,13.06
2018-04-30T17:13:59.274Z,13.25
2018-04-30T17:16:25.629Z,13.31
2018-04-30T17:18:51.914Z,13.11
2018-04-30T17:21:18.972Z,12.65
2018-04-30T17:23:45.995Z,13.31
2018-04-30T17:26:12.305Z,14.51
2018-04-30T17:28:38.585Z,14.54
2018-04-30T17:31:05.727Z,14.03
2018-04-30T17:33:32.872Z,13.97
2018-04-30T17:35:59.928Z,15.62
2018-04-30T17:38:27.042Z,19.20
2018-04-30T17:40:53.379Z,21.08
2018-04-30T17:43:19.664Z,22.03
2018-04-30T17:45:45.954Z,23.59
2018-04-30T17:48:12.301Z,24.62
2018-04-30T17:50:39.355Z,25.21
2018-04-30T17:53:06.423Z,26.39
2018-04-30T17:55:32.770Z,26.14
2018-04-30T17:57:59.050Z,26.75
2018-04-30T18:00:26.124Z,26.95
2018-04-30T18:02:52.461Z,27.37
2018-04-30T18:05:18.790Z,27.47
2018-04-30T18:07:45.117Z,27.71
2018-04-30T18:10:11.407Z,27.67
2018-04-30T18:12:37.782Z,28.32
2018-04-30T18:15:04.099Z,28.68
2018-04-30T18:17:31.129Z,29.04
2018-04-30T18:19:57.425Z,29.63
2018-04-30T18:22:23.738Z,29.97
2018-04-30T18:24:50.286Z,30.18
2018-04-30T18:27:16.625Z,31.38
2018-04-30T18:29:42.919Z,31.13
2018-04-30T18:47:13.451Z,37.20
2018-04-30T18:49:39.803Z,36.47
2018-04-30T18:52:06.112Z,36.39
2018-04-30T18:54:32.482Z,36.32
2018-04-30T18:56:58.839Z,37.42
2018-04-30T18:59:25.222Z,37.30
2018-04-30T19:01:51.619Z,35.83
2018-04-30T19:04:18.857Z,36.23
2018-04-30T19:06:45.198Z,36.03
2018-04-30T19:09:12.509Z,36.04
2018-04-30T19:11:39.002Z,36.02
2018-04-30T19:14:05.986Z,37.73
2018-04-30T19:16:32.389Z,37.14
2018-04-30T19:18:59.686Z,37.54
2018-04-30T19:21:26.872Z,37.69
2018-04-30T19:23:53.353Z,37.98
2018-04-30T19:26:19.741Z,38.14
2018-04-30T19:28:47.766Z,38.31
2018-04-30T19:31:14.218Z,38.64
2018-04-30T19:33:40.621Z,39.05
2018-04-30T19:36:07.012Z,39.76
2018-04-30T19:38:34.418Z,40.64
2018-04-30T19:41:00.746Z,41.44
2018-04-30T19:43:27.097Z,41.77
2018-04-30T19:45:53.391Z,42.04
2018-04-30T19:48:19.786Z,42.12
2018-04-30T19:50:46.150Z,42.53
2018-04-30T19:53:12.479Z,43.03
2018-04-30T19:55:38.799Z,43.77
2018-04-30T20:10:21.330Z,44.54
2018-04-30T20:12:47.659Z,44.50
2018-04-30T20:15:13.960Z,44.43
2018-04-30T20:17:46.674Z,44.93
2018-04-30T20:20:13.070Z,45.04
2018-04-30T20:22:41.385Z,45.53
2018-04-30T20:25:07.879Z,46.00
2018-04-30T20:27:34.299Z,45.78
2018-04-30T20:30:01.375Z,45.88
2018-04-30T20:32:28.415Z,45.26
2018-04-30T20:34:55.643Z,45.37
2018-04-30T20:37:22.126Z,45.85
2018-04-30T20:39:48.499Z,46.81
2018-04-30T20:42:14.765Z,47.49
2018-04-30T20:44:41.898Z,47.69
2018-04-30T20:47:09.001Z,47.76
2018-04-30T20:49:35.475Z,47.92
2018-04-30T20:52:01.889Z,47.87
2018-04-30T20:54:28.235Z,47.98
2018-04-30T20:56:54.545Z,48.30
2018-04-30T20:59:21.627Z,48.44
2018-04-30T21:01:47.956Z,49.10
2018-04-30T21:04:14.271Z,49.08
2018-04-30T21:06:40.623Z,49.06
2018-04-30T21:09:12.559Z,49.32
2018-04-30T21:11:38.911Z,50.30
2018-04-30T21:14:05.333Z,49.05
2018-04-30T21:16:31.720Z,50.14
2018-04-30T21:18:58.075Z,48.45
2018-04-30T21:21:24.535Z,49.40
2018-04-30T21:23:50.908Z,48.11
2018-04-30T21:26:17.210Z,47.25
2018-04-30T21:28:54.285Z,48.02
2018-04-30T21:31:20.613Z,48.65
2018-04-30T21:33:46.921Z,49.09
2018-04-30T21:36:13.268Z,48.74
2018-04-30T21:38:39.622Z,47.70
2018-04-30T21:41:06.652Z,48.57
2018-04-30T21:43:32.982Z,48.54
2018-04-30T21:45:59.315Z,48.00
2018-04-30T21:48:25.655Z,48.58
2018-04-30T21:50:51.983Z,49.31
2018-04-30T21:53:18.280Z,49.60
2018-04-30T21:55:44.582Z,50.22
2018-04-30T21:58:10.882Z,50.50
2018-04-30T22:00:38.022Z,50.97
2018-04-30T22:03:04.487Z,51.09
2018-04-30T22:05:30.815Z,50.49
2018-04-30T22:07:57.223Z,50.13
2018-04-30T22:10:23.520Z,50.90
2018-04-30T22:12:49.846Z,50.44
2018-04-30T22:15:16.176Z,51.14
2018-04-30T22:17:42.514Z,49.94
2018-04-30T22:20:08.840Z,50.30
2018-04-30T22:22:35.396Z,50.44
2018-04-30T22:25:01.736Z,50.15
2018-04-30T22:27:28.085Z,50.20
2018-04-30T22:29:55.184Z,50.43
2018-04-30T22:32:21.544Z,50.05
2018-04-30T22:34:47.811Z,49.54
2018-04-30T22:37:14.872Z,50.31
2018-04-30T22:39:46.042Z,51.21
2018-04-30T22:42:12.344Z,50.63
2018-04-30T22:44:38.639Z,50.08
2018-04-30T22:47:05.015Z,50.70
2018-04-30T22:49:31.415Z,50.94
2018-04-30T22:51:58.445Z,49.73
2018-04-30T22:54:25.751Z,50.16
2018-04-30T22:56:52.050Z,50.01
2018-04-30T22:59:18.381Z,50.51
2018-04-30T23:01:45.469Z,50.30
2018-04-30T23:04:11.806Z,50.34
2018-04-30T23:06:38.074Z,50.61
2018-04-30T23:09:04.498Z,50.00
2018-04-30T23:11:30.866Z,50.14
2018-04-30T23:13:57.878Z,50.07
2018-04-30T23:16:24.206Z,50.31
2018-04-30T23:18:50.508Z,50.59
2018-04-30T23:21:16.839Z,50.55
2018-04-30T23:23:43.163Z,49.85
2018-04-30T23:26:09.501Z,50.03
2018-04-30T23:28:35.836Z,50.62
2018-04-30T23:31:02.127Z,51.21
2018-04-30T23:33:29.203Z,51.14
2018-04-30T23:35:55.526Z,51.84
2018-04-30T23:38:21.832Z,51.33
2018-04-30T23:40:48.888Z,49.84
2018-04-30T23:43:15.981Z,48.63
2018-04-30T23:45:42.363Z,49.91
2018-04-30T23:48:09.389Z,49.42
2018-04-30T23:50:35.775Z,49.47
2018-04-30T23:53:02.106Z,49.09
2018-04-30T23:55:28.414Z,48.74
2018-04-30T23:57:55.488Z,49.09
